Time;durP1;ratioP1;P1;durP2;ratioP2;P2;SDS_P1;SDS_P2;PMS_P1;PMS_P2;Temp;Humidity;BMP_temperature;BMP_pressure;BME280_temperature;BME280_humidity;BME280_pressure;Samples;Min_cycle;Max_cycle;Signal;HPM_P1;HPM_P2
2023/07/06 00:02:26;;;;;;;4.87;4.13;;;16.20;99.90;;;;;;5011227;28;20609;-54
2023/07/06 00:04:53;;;;;;;5.47;4.97;;;16.20;99.90;;;;;;5011447;28;20230;-53
2023/07/06 00:07:22;;;;;;;5.47;5.07;;;16.30;99.90;;;;;;5011638;28;20205;-53
2023/07/06 00:09:50;;;;;;;6.30;5.43;;;16.30;99.90;;;;;;5010401;28;21476;-54
2023/07/06 00:12:19;;;;;;;5.33;4.90;;;16.30;99.90;;;;;;5010460;28;20566;-53
2023/07/06 00:14:46;;;;;;;6.43;5.80;;;16.30;99.90;;;;;;5006670;28;20204;-53
2023/07/06 00:17:15;;;;;;;5.80;5.27;;;16.30;99.90;;;;;;5011119;28;20215;-53
2023/07/06 00:19:42;;;;;;;6.70;4.90;;;16.30;99.90;;;;;;5011428;28;20269;-53
2023/07/06 00:22:11;;;;;;;5.87;5.33;;;16.30;99.90;;;;;;5013579;28;20313;-53
2023/07/06 00:24:41;;;;;;;5.57;5.07;;;16.30;99.90;;;;;;5014809;28;20207;-54
2023/07/06 00:27:08;;;;;;;5.80;5.30;;;16.30;99.90;;;;;;5015043;28;20200;-53
2023/07/06 00:29:38;;;;;;;6.90;5.30;;;16.20;99.90;;;;;;5012820;28;20203;-53
2023/07/06 00:32:26;;;;;;;7.13;5.20;;;16.20;99.90;;;;;;5014873;28;20215;-53
2023/07/06 00:34:53;;;;;;;5.50;5.00;;;16.30;99.90;;;;;;5013828;28;20211;-53
2023/07/06 00:37:21;;;;;;;5.83;5.27;;;16.30;99.90;;;;;;5014571;28;20219;-53
2023/07/06 00:39:49;;;;;;;5.80;5.33;;;16.30;99.90;;;;;;5014478;28;20613;-53
2023/07/06 00:42:19;;;;;;;5.70;5.30;;;16.30;99.90;;;;;;5014375;28;20284;-53
2023/07/06 00:44:50;;;;;;;6.50;5.80;;;16.30;99.90;;;;;;5012781;28;20211;-53
2023/07/06 00:47:20;;;;;;;6.13;5.63;;;16.20;99.90;;;;;;5013451;28;20199;-53
2023/07/06 00:49:47;;;;;;;6.53;5.93;;;16.20;99.90;;;;;;5014366;28;20621;-53
2023/07/06 00:52:15;;;;;;;5.97;5.47;;;16.30;99.90;;;;;;5014103;28;20223;-53
2023/07/06 00:54:42;;;;;;;7.00;6.40;;;16.30;99.90;;;;;;5014789;28;20203;-53
2023/07/06 00:57:16;;;;;;;7.50;6.47;;;16.30;99.90;;;;;;5014378;28;20266;-53
2023/07/06 00:59:44;;;;;;;7.53;6.47;;;16.20;99.90;;;;;;5011931;28;20199;-53
2023/07/06 01:02:16;;;;;;;6.57;5.80;;;16.30;99.90;;;;;;5013929;28;20647;-53
2023/07/06 01:04:45;;;;;;;5.73;5.23;;;16.20;99.90;;;;;;5013113;28;20207;-53
2023/07/06 01:07:18;;;;;;;6.43;5.10;;;16.20;99.90;;;;;;5013477;28;20196;-53
2023/07/06 01:09:46;;;;;;;6.47;5.93;;;16.20;99.90;;;;;;5014022;28;20604;-53
2023/07/06 01:12:16;;;;;;;6.43;5.93;;;16.20;99.90;;;;;;5012081;28;20305;-53
2023/07/06 01:14:45;;;;;;;5.80;5.30;;;16.20;99.90;;;;;;5013955;28;20692;-53
2023/07/06 01:17:18;;;;;;;5.67;5.27;;;16.20;99.90;;;;;;5013511;28;20302;-54
2023/07/06 01:20:14;;;;;;;6.27;5.77;;;16.20;99.90;;;;;;5014296;28;20206;-53
2023/07/06 01:23:10;;;;;;;6.83;6.17;;;16.20;99.90;;;;;;5007241;28;20230;-53
2023/07/06 01:25:55;;;;;;;6.30;5.67;;;16.20;99.90;;;;;;5012735;28;20665;-53
2023/07/06 01:28:40;;;;;;;5.80;5.23;;;16.20;99.90;;;;;;5007661;28;20628;-53
2023/07/06 01:31:36;;;;;;;6.33;5.83;;;16.10;99.90;;;;;;5013375;28;20245;-53
2023/07/06 01:34:12;;;;;;;6.33;5.23;;;16.10;99.90;;;;;;5013006;28;20207;-53
2023/07/06 01:36:47;;;;;;;7.70;4.80;;;16.10;99.90;;;;;;5012580;28;20219;-53
2023/07/06 01:39:16;;;;;;;4.20;3.80;;;16.20;99.90;;;;;;5011330;28;20209;-53
2023/07/06 01:41:45;;;;;;;4.80;4.40;;;16.10;99.90;;;;;;5013214;28;20257;-53
2023/07/06 01:44:13;;;;;;;5.23;3.87;;;16.10;99.90;;;;;;5013543;28;20203;-53
2023/07/06 01:46:54;;;;;;;4.67;4.17;;;16.10;99.90;;;;;;5012660;28;20199;-53
2023/07/06 01:49:21;;;;;;;3.80;3.50;;;16.10;99.90;;;;;;5006253;28;20257;-53
2023/07/06 01:51:56;;;;;;;3.77;3.40;;;16.00;99.90;;;;;;5011354;28;20198;-53
2023/07/06 01:54:31;;;;;;;3.90;3.60;;;16.00;99.90;;;;;;5012959;28;20631;-53
2023/07/06 01:57:04;;;;;;;3.60;3.40;;;16.00;99.90;;;;;;5013193;28;20285;-53
2023/07/06 01:59:35;;;;;;;2.80;2.67;;;15.90;99.90;;;;;;5013159;28;20577;-53
2023/07/06 02:02:07;;;;;;;3.50;3.30;;;15.80;99.90;;;;;;5013303;28;20234;-53
2023/07/06 02:04:37;;;;;;;4.07;3.33;;;15.80;99.90;;;;;;5011984;28;20202;-53
2023/07/06 02:07:07;;;;;;;3.40;3.20;;;15.80;99.90;;;;;;5011210;28;20196;-53
2023/07/06 02:09:43;;;;;;;4.23;3.63;;;15.80;99.90;;;;;;5013030;28;20199;-53
2023/07/06 02:12:12;;;;;;;4.13;3.73;;;15.80;99.90;;;;;;5010704;28;20233;-53
2023/07/06 02:14:40;;;;;;;3.50;3.30;;;15.70;99.90;;;;;;5012928;28;20605;-53
2023/07/06 02:17:09;;;;;;;4.77;4.37;;;15.70;99.90;;;;;;5011580;28;20314;-53
2023/07/06 02:19:36;;;;;;;5.67;3.97;;;15.70;99.90;;;;;;5012970;28;20195;-53
2023/07/06 02:22:04;;;;;;;3.43;3.23;;;15.70;99.90;;;;;;5011904;28;20219;-53
2023/07/06 02:24:31;;;;;;;4.40;3.27;;;15.70;99.90;;;;;;5012505;28;20204;-53
2023/07/06 02:26:58;;;;;;;3.67;3.37;;;15.70;99.90;;;;;;5012749;28;20685;-53
2023/07/06 02:29:25;;;;;;;4.13;3.73;;;15.70;99.90;;;;;;5011631;28;20211;-53
2023/07/06 02:31:53;;;;;;;5.97;3.00;;;15.60;99.90;;;;;;5012376;28;20203;-53
2023/07/06 02:34:24;;;;;;;3.77;3.33;;;15.60;99.90;;;;;;5012540;28;20235;-53
2023/07/06 02:36:52;;;;;;;3.50;3.30;;;15.60;99.90;;;;;;5012540;28;20686;-53
2023/07/06 02:39:20;;;;;;;3.13;2.83;;;15.60;99.90;;;;;;5010974;28;20203;-53
2023/07/06 02:41:47;;;;;;;5.13;3.37;;;15.50;99.90;;;;;;5011065;28;20214;-53
2023/07/06 02:44:14;;;;;;;4.83;3.17;;;15.50;99.90;;;;;;5034032;22;20312;-53
2023/07/06 02:46:41;;;;;;;3.50;3.20;;;15.40;99.90;;;;;;5032040;28;20252;-53
2023/07/06 02:49:08;;;;;;;3.60;3.40;;;15.40;99.90;;;;;;5032380;28;20207;-53
2023/07/06 02:51:36;;;;;;;4.10;3.73;;;15.40;99.90;;;;;;5032261;28;20284;-54
2023/07/06 02:54:03;;;;;;;3.73;3.50;;;15.40;99.90;;;;;;5030776;28;20222;-53
2023/07/06 02:56:30;;;;;;;3.73;3.43;;;15.40;99.90;;;;;;5031795;28;20222;-53
2023/07/06 02:58:57;;;;;;;2.93;2.77;;;15.40;99.90;;;;;;5032243;28;20230;-53
2023/07/06 03:01:24;;;;;;;3.80;3.47;;;15.40;99.90;;;;;;5031898;28;20667;-53
2023/07/06 03:03:52;;;;;;;3.53;3.20;;;15.40;99.90;;;;;;5031865;28;20226;-53
2023/07/06 03:06:19;;;;;;;3.20;2.73;;;15.40;99.90;;;;;;5031036;28;20206;-53
2023/07/06 03:08:47;;;;;;;3.60;3.30;;;15.40;99.90;;;;;;5031699;28;20208;-53
2023/07/06 03:11:14;;;;;;;5.20;3.83;;;15.40;99.90;;;;;;5031918;28;20202;-53
2023/07/06 03:13:41;;;;;;;4.67;3.33;;;15.40;99.90;;;;;;5031434;28;20683;-53
2023/07/06 03:16:08;;;;;;;4.57;3.50;;;15.40;99.90;;;;;;5031701;28;20734;-53
2023/07/06 03:18:35;;;;;;;5.27;4.83;;;15.40;99.90;;;;;;5030952;28;20237;-53
2023/07/06 03:21:02;;;;;;;3.97;3.60;;;15.40;99.90;;;;;;5031631;28;20206;-53
2023/07/06 03:23:29;;;;;;;3.80;3.50;;;15.40;99.90;;;;;;5031677;28;20219;-53
2023/07/06 03:25:58;;;;;;;4.07;3.77;;;15.40;99.90;;;;;;5030723;28;20194;-53
2023/07/06 03:28:25;;;;;;;6.83;4.37;;;15.40;99.90;;;;;;5031413;28;20209;-53
2023/07/06 03:30:55;;;;;;;5.03;4.00;;;15.40;99.90;;;;;;5030776;28;20676;-53
2023/07/06 03:33:24;;;;;;;4.83;4.43;;;15.40;99.90;;;;;;5025127;28;20215;-53
2023/07/06 03:35:53;;;;;;;4.43;4.03;;;15.50;99.90;;;;;;5031467;28;20210;-53
2023/07/06 03:38:21;;;;;;;7.63;5.03;;;15.50;99.90;;;;;;5029566;28;20225;-53
2023/07/06 03:40:49;;;;;;;6.33;5.20;;;15.50;99.90;;;;;;5031454;28;20206;-53
2023/07/06 03:43:19;;;;;;;6.13;5.53;;;15.50;99.90;;;;;;5026613;28;20719;-53
2023/07/06 03:45:47;;;;;;;7.10;6.00;;;15.50;99.90;;;;;;5029238;28;20199;-53
2023/07/06 03:48:14;;;;;;;6.33;5.73;;;15.60;99.90;;;;;;5030699;28;20194;-53
2023/07/06 03:50:43;;;;;;;6.13;5.53;;;15.60;99.90;;;;;;5030458;28;20242;-53
2023/07/06 03:53:10;;;;;;;8.13;6.07;;;15.60;99.90;;;;;;5031105;28;20269;-53
2023/07/06 03:55:37;;;;;;;7.20;5.37;;;15.50;99.90;;;;;;5032988;28;20200;-53
2023/07/06 03:58:04;;;;;;;8.43;5.90;;;15.60;99.90;;;;;;5033177;28;20219;-53
2023/07/06 04:00:34;;;;;;;8.63;5.47;;;15.60;99.90;;;;;;5035048;28;20194;-53
2023/07/06 04:03:03;;;;;;;10.00;5.00;;;15.60;99.90;;;;;;5035314;28;20218;-53
2023/07/06 04:05:32;;;;;;;4.70;4.30;;;15.60;99.90;;;;;;5034257;28;20668;-53
2023/07/06 04:08:03;;;;;;;3.97;3.67;;;15.60;99.90;;;;;;5033916;28;20249;-53
2023/07/06 04:10:32;;;;;;;3.77;3.47;;;15.60;99.90;;;;;;5034150;28;20205;-53
2023/07/06 04:12:59;;;;;;;4.00;2.90;;;15.60;99.90;;;;;;5034281;28;20269;-53
2023/07/06 04:15:26;;;;;;;3.70;3.40;;;15.60;99.90;;;;;;5035120;28;20202;-53
2023/07/06 04:17:55;;;;;;;5.67;3.37;;;15.60;99.90;;;;;;5034964;28;20308;-53
2023/07/06 04:20:25;;;;;;;5.80;2.93;;;15.60;99.90;;;;;;5034934;28;20228;-53
2023/07/06 04:22:55;;;;;;;4.30;4.00;;;15.70;99.90;;;;;;5034532;28;20226;-53
2023/07/06 04:25:26;;;;;;;3.50;3.23;;;15.80;99.90;;;;;;5033694;28;20744;-53
2023/07/06 04:27:54;;;;;;;3.87;3.53;;;15.80;99.90;;;;;;5034743;28;20569;-53
2023/07/06 04:30:21;;;;;;;5.30;4.60;;;15.80;99.90;;;;;;5034640;28;20203;-53
2023/07/06 04:32:49;;;;;;;4.17;3.77;;;15.90;99.90;;;;;;5034420;28;20222;-53
2023/07/06 04:35:21;;;;;;;6.23;5.03;;;16.00;99.90;;;;;;5034677;28;20290;-53
2023/07/06 04:37:49;;;;;;;9.10;4.63;;;16.00;99.90;;;;;;5033940;28;20410;-53
2023/07/06 04:40:18;;;;;;;4.50;4.10;;;16.00;99.90;;;;;;5033600;28;20198;-53
2023/07/06 04:42:47;;;;;;;4.37;4.07;;;16.00;99.90;;;;;;5033966;28;20233;-53
2023/07/06 04:45:14;;;;;;;3.87;3.57;;;16.10;99.90;;;;;;5034372;28;20297;-53
2023/07/06 04:47:41;;;;;;;3.77;3.50;;;16.10;99.90;;;;;;5034306;28;20198;-53
2023/07/06 04:50:10;;;;;;;5.57;4.10;;;16.20;99.90;;;;;;5034298;28;20199;-54
2023/07/06 04:52:42;;;;;;;4.80;3.77;;;16.20;99.90;;;;;;5033237;28;20222;-53
2023/07/06 04:55:09;;;;;;;6.50;3.77;;;16.30;99.90;;;;;;5031215;28;20281;-53
2023/07/06 04:57:37;;;;;;;4.57;4.17;;;16.30;99.90;;;;;;5034144;28;20304;-53
2023/07/06 05:00:12;;;;;;;3.60;3.40;;;16.40;99.90;;;;;;5034266;28;20253;-53
2023/07/06 05:02:42;;;;;;;3.63;3.33;;;16.50;99.90;;;;;;5033600;28;20222;-53
2023/07/06 05:05:11;;;;;;;4.53;4.13;;;16.70;99.90;;;;;;5032297;28;20194;-53
2023/07/06 05:07:38;;;;;;;5.07;4.33;;;16.80;99.90;;;;;;5032234;28;20202;-53
2023/07/06 05:10:08;;;;;;;6.93;4.07;;;17.00;99.90;;;;;;5024675;28;20207;-53
2023/07/06 05:12:35;;;;;;;3.93;3.73;;;17.10;99.90;;;;;;5033277;28;20716;-53
2023/07/06 05:15:03;;;;;;;3.70;3.37;;;17.10;99.90;;;;;;5033849;28;20256;-53
2023/07/06 05:17:33;;;;;;;6.30;4.27;;;17.00;99.90;;;;;;5033949;28;20218;-53
2023/07/06 05:20:00;;;;;;;4.27;3.87;;;16.90;99.90;;;;;;5033765;28;20256;-53
2023/07/06 05:22:27;;;;;;;4.57;4.20;;;16.90;99.90;;;;;;5033331;28;20206;-53
2023/07/06 05:24:54;;;;;;;6.40;3.97;;;16.90;99.90;;;;;;5031581;28;20270;-53
2023/07/06 05:27:24;;;;;;;4.23;3.93;;;17.10;99.90;;;;;;5033270;28;20752;-53
2023/07/06 05:29:51;;;;;;;3.80;3.47;;;17.40;99.90;;;;;;5035487;28;20202;-52
2023/07/06 05:32:18;;;;;;;4.10;3.80;;;17.70;99.90;;;;;;5031635;28;20671;-53
2023/07/06 05:34:45;;;;;;;7.03;3.60;;;18.50;99.90;;;;;;5023892;28;20202;-53
2023/07/06 05:37:12;;;;;;;4.70;3.87;;;19.20;99.90;;;;;;5031393;28;20292;-53
2023/07/06 05:39:39;;;;;;;2.43;2.20;;;19.30;99.90;;;;;;5038442;28;20198;-53
2023/07/06 05:42:06;;;;;;;4.90;3.17;;;19.30;99.90;;;;;;5032384;28;20252;-53
2023/07/06 05:44:41;;;;;;;3.60;3.30;;;19.20;99.90;;;;;;5026312;28;20238;-53
2023/07/06 05:47:08;;;;;;;3.97;3.70;;;19.00;99.90;;;;;;5021102;28;20616;-53
2023/07/06 05:49:35;;;;;;;5.07;3.17;;;18.80;99.90;;;;;;5026630;28;20206;-53
2023/07/06 05:52:02;;;;;;;4.47;3.83;;;18.50;99.90;;;;;;5035004;28;20844;-53
2023/07/06 05:54:29;;;;;;;3.40;3.20;;;18.40;99.90;;;;;;5028137;28;20657;-53
2023/07/06 05:56:57;;;;;;;4.23;3.93;;;18.60;99.90;;;;;;5031018;28;20272;-62
2023/07/06 05:59:25;;;;;;;4.43;3.63;;;18.80;99.90;;;;;;5032864;28;20641;-63
2023/07/06 06:01:54;;;;;;;4.03;3.73;;;19.10;99.90;;;;;;5031889;28;20217;-60
2023/07/06 06:04:21;;;;;;;4.30;3.90;;;19.20;99.90;;;;;;5032619;28;20222;-61
2023/07/06 06:06:50;;;;;;;3.77;3.47;;;19.00;99.90;;;;;;5031693;28;20199;-60
2023/07/06 06:09:17;;;;;;;3.50;3.13;;;19.10;99.90;;;;;;5029735;28;20574;-60
2023/07/06 06:11:45;;;;;;;3.30;3.10;;;19.40;99.90;;;;;;5032205;28;20236;-61
2023/07/06 06:14:15;;;;;;;2.90;2.67;;;19.90;99.90;;;;;;5030358;28;20227;-69
2023/07/06 06:16:42;;;;;;;2.90;2.70;;;20.10;99.90;;;;;;5026338;28;20203;-59
2023/07/06 06:19:11;;;;;;;3.73;3.07;;;20.40;99.90;;;;;;5028045;28;20229;-53
2023/07/06 06:21:38;;;;;;;3.27;2.97;;;21.20;99.90;;;;;;5031490;28;20718;-61
2023/07/06 06:24:08;;;;;;;2.70;2.60;;;22.20;99.90;;;;;;5028772;28;20284;-61
2023/07/06 06:26:36;;;;;;;4.47;3.97;;;22.60;99.90;;;;;;5030412;28;20253;-61
2023/07/06 06:29:09;;;;;;;3.33;3.03;;;22.50;99.90;;;;;;5024492;28;20245;-60
2023/07/06 06:31:37;;;;;;;4.40;3.30;;;23.10;99.90;;;;;;5029654;28;20202;-61
2023/07/06 06:34:04;;;;;;;2.60;2.43;;;24.10;99.90;;;;;;5024299;28;20280;-61
2023/07/06 06:36:33;;;;;;;5.17;3.17;;;23.90;99.90;;;;;;5030735;28;20691;-61
2023/07/06 06:39:01;;;;;;;3.93;2.57;;;23.30;99.90;;;;;;5031694;28;20292;-61
2023/07/06 06:41:28;;;;;;;3.17;2.93;;;22.90;99.90;;;;;;5030114;28;20194;-61
2023/07/06 06:43:56;;;;;;;3.30;2.40;;;22.40;99.90;;;;;;5027301;28;20715;-61
2023/07/06 06:46:24;;;;;;;3.10;2.90;;;22.20;99.90;;;;;;5030872;28;20206;-61
2023/07/06 06:48:52;;;;;;;2.90;2.70;;;22.10;99.90;;;;;;5028343;28;20202;-60
2023/07/06 06:51:19;;;;;;;2.30;2.20;;;21.90;99.90;;;;;;5030107;28;20210;-60
2023/07/06 06:53:48;;;;;;;3.40;2.70;;;21.50;99.90;;;;;;5031346;28;20321;-61
2023/07/06 06:56:15;;;;;;;2.93;2.77;;;21.30;99.90;;;;;;5028708;28;20637;-61
2023/07/06 06:58:42;;;;;;;2.40;2.17;;;21.40;99.90;;;;;;5029819;28;20767;-61
2023/07/06 07:01:10;;;;;;;2.80;2.43;;;22.50;99.90;;;;;;5028541;28;20281;-61
2023/07/06 07:03:37;;;;;;;3.47;2.67;;;22.90;99.90;;;;;;5030424;28;20230;-59
2023/07/06 07:06:11;;;;;;;3.70;3.20;;;23.00;99.90;;;;;;5030595;28;20226;-60
2023/07/06 07:08:39;;;;;;;2.57;2.40;;;22.90;99.90;;;;;;5030811;28;20210;-60
2023/07/06 07:11:08;;;;;;;3.20;2.77;;;22.80;99.90;;;;;;5031860;28;20754;-59
2023/07/06 07:13:37;;;;;;;3.13;2.90;;;23.30;99.90;;;;;;5028947;28;20279;-62
2023/07/06 07:16:05;;;;;;;3.60;3.30;;;23.00;99.90;;;;;;5029094;28;20198;-60
2023/07/06 07:18:33;;;;;;;2.63;2.53;;;22.70;99.90;;;;;;5030685;28;20250;-60
2023/07/06 07:21:01;;;;;;;4.03;2.77;;;22.40;99.90;;;;;;5031370;28;20199;-60
2023/07/06 07:23:40;;;;;;;6.87;3.20;;;22.40;99.90;;;;;;5031488;28;20317;-59
2023/07/06 07:26:09;;;;;;;3.30;3.10;;;22.40;99.90;;;;;;5030784;28;20557;-57
2023/07/06 07:28:37;;;;;;;2.73;2.53;;;22.60;99.90;;;;;;5027304;28;20572;-60
2023/07/06 07:31:06;;;;;;;3.03;2.83;;;22.90;99.90;;;;;;5037732;28;20205;-61
2023/07/06 07:33:34;;;;;;;3.10;2.90;;;22.90;99.90;;;;;;5037703;28;20314;-59
2023/07/06 07:36:03;;;;;;;3.77;2.93;;;22.80;99.90;;;;;;5038204;28;20206;-60
2023/07/06 07:38:30;;;;;;;3.27;3.07;;;22.60;99.90;;;;;;5037918;28;20264;-59
2023/07/06 07:40:59;;;;;;;3.87;3.60;;;22.50;99.90;;;;;;5037007;28;20230;-59
2023/07/06 07:43:31;;;;;;;7.57;5.20;;;22.10;99.90;;;;;;5037562;28;20658;-61
2023/07/06 07:46:01;;;;;;;2.93;2.73;;;22.20;99.90;;;;;;5037945;28;20206;-58
2023/07/06 07:48:29;;;;;;;3.67;3.47;;;22.40;99.90;;;;;;5038045;28;20221;-58
2023/07/06 07:50:57;;;;;;;3.33;2.83;;;22.50;99.90;;;;;;5038059;28;20579;-58
2023/07/06 07:53:26;;;;;;;4.67;3.30;;;22.80;99.90;;;;;;5037712;28;20287;-60
2023/07/06 07:55:54;;;;;;;2.87;2.50;;;22.90;99.90;;;;;;5036633;28;20744;-58
2023/07/06 07:58:22;;;;;;;3.63;3.33;;;22.80;99.90;;;;;;5037285;28;20225;-53
2023/07/06 08:00:51;;;;;;;5.80;3.70;;;22.70;99.90;;;;;;5036215;28;21968;-52
2023/07/06 08:03:18;;;;;;;2.77;2.57;;;22.70;99.90;;;;;;5033221;28;20226;-51
2023/07/06 08:05:46;;;;;;;3.53;3.27;;;22.50;99.90;;;;;;5037673;28;20599;-51
2023/07/06 08:08:13;;;;;;;3.80;3.40;;;22.60;99.90;;;;;;5038047;28;20220;-52
2023/07/06 08:10:42;;;;;;;3.33;3.17;;;22.60;99.90;;;;;;5037727;28;20256;-52
2023/07/06 08:13:10;;;;;;;3.60;3.33;;;22.20;99.90;;;;;;5037542;28;20226;-52
2023/07/06 08:15:38;;;;;;;3.33;3.13;;;22.00;99.90;;;;;;5037338;28;20213;-52
2023/07/06 08:18:07;;;;;;;3.70;3.40;;;22.10;99.90;;;;;;5038052;28;20226;-51
2023/07/06 08:20:35;;;;;;;3.67;3.40;;;22.30;99.90;;;;;;5037780;28;20198;-52
2023/07/06 08:23:05;;;;;;;3.47;3.27;;;22.60;99.90;;;;;;5047281;28;20221;-51
2023/07/06 08:25:37;;;;;;;3.50;3.03;;;22.90;99.90;;;;;;5021843;28;20542;-51
2023/07/06 08:28:05;;;;;;;2.80;2.70;;;23.60;99.90;;;;;;5026769;28;20191;-52
2023/07/06 08:30:32;;;;;;;4.03;3.13;;;24.10;99.90;;;;;;5027215;28;20302;-51
2023/07/06 08:33:00;;;;;;;4.80;4.40;;;24.40;99.90;;;;;;5047685;28;20661;-52
2023/07/06 08:35:29;;;;;;;4.90;3.43;;;24.70;99.90;;;;;;5035475;28;20198;-52
2023/07/06 08:37:56;;;;;;;4.67;4.27;;;24.60;99.90;;;;;;5036830;28;20206;-52
2023/07/06 08:40:27;;;;;;;3.17;2.93;;;24.90;99.90;;;;;;5036819;28;20224;-52
2023/07/06 08:42:55;;;;;;;4.60;4.20;;;25.00;99.90;;;;;;5057270;22;20259;-59
2023/07/06 08:45:25;;;;;;;3.63;3.30;;;25.10;99.90;;;;;;5054315;28;20676;-59
2023/07/06 08:47:52;;;;;;;3.43;3.20;;;25.70;99.90;;;;;;5054225;28;20236;-59
2023/07/06 08:50:28;;;;;;;3.77;3.47;;;25.70;99.90;;;;;;5052370;28;20636;-60
2023/07/06 08:52:56;;;;;;;3.87;3.57;;;25.60;99.90;;;;;;5053462;28;20695;-60
2023/07/06 08:55:24;;;;;;;4.63;4.00;;;26.00;99.90;;;;;;5053881;28;20202;-59
2023/07/06 08:57:52;;;;;;;5.07;4.57;;;26.60;99.90;;;;;;5053620;28;20206;-59
2023/07/06 09:00:22;;;;;;;4.43;4.03;;;26.90;99.90;;;;;;5053863;28;20606;-60
2023/07/06 09:02:50;;;;;;;5.18;4.78;;;27.40;99.90;;;;;;5052725;28;20216;-60
2023/07/06 09:05:17;;;;;;;6.43;4.32;;;27.40;99.90;;;;;;5053749;28;20197;-60
2023/07/06 09:07:46;;;;;;;4.30;4.00;;;27.30;99.90;;;;;;5053854;28;20206;-59
2023/07/06 09:10:19;;;;;;;5.90;3.67;;;27.70;99.90;;;;;;5053554;28;20231;-59
2023/07/06 09:12:46;;;;;;;4.65;4.25;;;28.00;99.90;;;;;;5053405;28;20205;-59
2023/07/06 09:15:17;;;;;;;8.63;4.38;;;27.20;99.90;;;;;;5053407;28;20263;-60
2023/07/06 09:17:50;;;;;;;5.28;4.78;;;26.90;99.90;;;;;;5053530;28;20202;-60
2023/07/06 09:20:19;;;;;;;5.25;4.75;;;26.70;99.90;;;;;;5051511;28;20225;-60
2023/07/06 09:22:48;;;;;;;5.00;4.45;;;26.20;99.90;;;;;;5053294;28;20251;-60
2023/07/06 09:25:18;;;;;;;3.90;3.70;;;26.10;99.90;;;;;;5053804;28;20605;-60
2023/07/06 09:27:48;;;;;;;5.47;4.97;;;26.10;99.90;;;;;;5053497;28;20198;-59
2023/07/06 09:30:29;;;;;;;4.77;4.40;;;25.50;99.90;;;;;;5053140;28;20629;-60
2023/07/06 09:33:05;;;;;;;5.63;5.23;;;25.30;99.90;;;;;;5052907;28;20733;-59
2023/07/06 09:35:36;;;;;;;5.03;4.63;;;24.90;99.90;;;;;;5053452;28;20205;-59
2023/07/06 09:38:04;;;;;;;4.57;4.27;;;25.10;99.90;;;;;;5051499;28;20284;-59
2023/07/06 09:40:32;;;;;;;5.90;5.40;;;24.80;99.90;;;;;;5053031;28;20644;-60
2023/07/06 09:42:59;;;;;;;6.07;4.13;;;24.80;99.90;;;;;;5052653;28;20229;-59
2023/07/06 09:45:28;;;;;;;5.13;4.73;;;25.20;99.90;;;;;;5052936;28;20260;-59
2023/07/06 09:47:57;;;;;;;5.60;4.87;;;25.00;99.90;;;;;;5053282;28;20210;-59
2023/07/06 09:50:32;;;;;;;4.87;4.57;;;25.30;99.90;;;;;;5052796;28;20667;-59
2023/07/06 09:53:00;;;;;;;5.20;4.43;;;25.80;99.90;;;;;;5051187;28;20221;-59
2023/07/06 09:55:30;;;;;;;5.23;4.53;;;26.30;99.90;;;;;;5051635;28;20667;-59
2023/07/06 09:57:59;;;;;;;4.20;3.90;;;27.00;99.90;;;;;;5051727;28;20293;-60
2023/07/06 10:00:33;;;;;;;4.27;3.97;;;27.40;99.90;;;;;;5052240;28;20341;-60
2023/07/06 10:03:13;;;;;;;4.63;4.23;;;28.10;99.90;;;;;;5049370;28;20218;-60
2023/07/06 10:05:47;;;;;;;3.88;3.65;;;28.30;99.90;;;;;;5051300;28;20205;-59
2023/07/06 10:08:18;;;;;;;4.20;3.80;;;29.10;99.90;;;;;;5042617;28;20204;-59
2023/07/06 10:10:58;;;;;;;3.97;3.67;;;29.00;99.90;;;;;;5052359;28;20327;-59
2023/07/06 10:13:38;;;;;;;3.75;3.55;;;28.70;99.90;;;;;;5052218;28;20301;-59
2023/07/06 10:16:14;;;;;;;5.78;4.90;;;28.60;99.90;;;;;;5050366;28;20280;-60
2023/07/06 10:18:50;;;;;;;4.50;4.13;;;27.70;99.90;;;;;;5050673;28;20311;-59
2023/07/06 10:21:23;;;;;;;3.67;3.38;;;27.50;99.90;;;;;;5045556;28;20259;-60
2023/07/06 10:24:00;;;;;;;4.27;3.97;;;27.50;99.90;;;;;;5052067;28;20225;-59
2023/07/06 10:26:32;;;;;;;3.55;3.33;;;28.10;99.90;;;;;;5052245;28;20209;-60
2023/07/06 10:29:04;;;;;;;3.83;3.53;;;28.50;99.90;;;;;;5051338;28;20226;-60
2023/07/06 10:31:36;;;;;;;11.07;4.05;;;29.10;99.90;;;;;;5051813;28;20655;-60
2023/07/06 10:34:10;;;;;;;4.55;3.42;;;28.80;99.90;;;;;;5051679;28;20226;-60
2023/07/06 10:36:38;;;;;;;3.97;3.70;;;28.90;99.90;;;;;;5048545;28;20264;-59
2023/07/06 10:39:13;;;;;;;4.40;4.13;;;29.10;99.90;;;;;;5054807;28;20638;-60
2023/07/06 10:41:45;;;;;;;3.70;3.42;;;29.00;99.90;;;;;;5054451;28;20192;-61
2023/07/06 10:44:44;;;;;;;3.80;3.15;;;29.00;99.90;;;;;;5050492;28;20222;-58
2023/07/06 10:47:39;;;;;;;4.03;3.72;;;28.70;99.90;;;;;;5050698;28;20201;-59
2023/07/06 10:50:28;;;;;;;5.03;4.50;;;28.40;99.90;;;;;;5051669;28;20193;-59
2023/07/06 10:53:04;;;;;;;3.95;3.75;;;28.00;99.90;;;;;;5050827;28;20267;-59
2023/07/06 10:55:35;;;;;;;4.50;3.88;;;28.10;99.90;;;;;;5051061;28;20501;-64
2023/07/06 10:58:22;;;;;;;4.22;3.85;;;28.00;99.90;;;;;;5051428;28;20727;-61
2023/07/06 11:00:51;;;;;;;3.63;3.47;;;28.10;99.90;;;;;;5049707;28;20267;-63
2023/07/06 11:03:23;;;;;;;4.28;3.47;;;28.10;99.90;;;;;;5050102;28;20222;-62
2023/07/06 11:05:56;;;;;;;3.42;3.20;;;27.80;99.90;;;;;;5050200;28;20285;-61
2023/07/06 11:09:03;;;;;;;4.05;3.80;;;27.00;99.90;;;;;;5049920;28;20212;-62
2023/07/06 11:11:35;;;;;;;3.20;3.03;;;26.80;99.90;;;;;;5031575;28;20208;-62
2023/07/06 11:14:21;;;;;;;3.70;3.47;;;26.30;99.90;;;;;;5048881;28;20308;-62
2023/07/06 11:16:56;;;;;;;3.60;3.30;;;26.20;99.90;;;;;;5041660;28;20205;-62
2023/07/06 11:19:27;;;;;;;4.17;3.73;;;25.90;99.90;;;;;;5052209;28;20221;-62
2023/07/06 11:21:59;;;;;;;5.23;3.73;;;26.00;99.90;;;;;;5050938;28;20202;-62
2023/07/06 11:24:32;;;;;;;3.40;3.10;;;26.30;99.90;;;;;;5050771;28;20217;-60
2023/07/06 11:27:04;;;;;;;2.93;2.83;;;26.20;99.90;;;;;;5050951;28;20285;-60
2023/07/06 11:29:33;;;;;;;3.40;3.10;;;26.30;99.90;;;;;;5050277;28;20275;-61
2023/07/06 11:32:14;;;;;;;2.73;2.63;;;26.10;99.90;;;;;;5049181;28;20209;-61
2023/07/06 11:34:50;;;;;;;3.47;3.33;;;26.10;99.90;;;;;;5050412;28;20279;-61
2023/07/06 11:37:26;;;;;;;3.33;3.03;;;26.00;99.90;;;;;;5051024;28;20209;-61
2023/07/06 11:40:00;;;;;;;2.93;2.73;;;26.00;99.90;;;;;;5050925;28;20225;-61
2023/07/06 11:42:40;;;;;;;2.50;2.40;;;26.30;99.90;;;;;;5050616;28;20845;-60
2023/07/06 11:45:16;;;;;;;3.40;3.20;;;26.40;99.90;;;;;;5051096;28;20205;-60
2023/07/06 11:47:54;;;;;;;3.07;2.83;;;26.50;99.90;;;;;;5050056;28;20202;-61
2023/07/06 11:50:22;;;;;;;2.90;2.70;;;26.00;99.90;;;;;;5050275;28;20280;-61
2023/07/06 11:52:58;;;;;;;3.38;3.08;;;25.90;99.90;;;;;;5050243;28;20255;-61
2023/07/06 11:55:50;;;;;;;2.87;2.67;;;26.00;99.90;;;;;;5050990;28;20205;-61
2023/07/06 11:58:31;;;;;;;4.00;2.03;;;26.10;99.90;;;;;;5050802;28;20682;-62
2023/07/06 12:01:01;;;;;;;2.43;2.33;;;26.20;99.90;;;;;;5050660;28;20699;-60
2023/07/06 12:03:29;;;;;;;2.20;2.10;;;26.10;99.90;;;;;;5049318;28;20260;-60
2023/07/06 12:05:59;;;;;;;2.40;2.30;;;25.90;99.90;;;;;;5050767;28;20582;-59
2023/07/06 12:08:29;;;;;;;2.53;2.20;;;25.90;99.90;;;;;;5050587;28;20293;-60
2023/07/06 12:11:00;;;;;;;4.60;2.70;;;25.70;99.90;;;;;;5050734;28;20197;-59
2023/07/06 12:13:30;;;;;;;2.30;2.20;;;25.40;99.90;;;;;;5050202;28;20789;-58
2023/07/06 12:16:05;;;;;;;1.97;1.87;;;25.10;99.90;;;;;;5052105;28;20260;-58
2023/07/06 12:18:34;;;;;;;1.93;1.83;;;25.00;99.90;;;;;;5054583;28;20201;-59
2023/07/06 12:21:02;;;;;;;2.23;2.13;;;24.90;99.90;;;;;;5052020;28;20568;-59
2023/07/06 12:23:30;;;;;;;5.33;2.37;;;24.90;99.90;;;;;;5054043;28;20217;-59
2023/07/06 12:25:58;;;;;;;1.97;1.87;;;24.90;99.90;;;;;;5054087;28;20263;-59
2023/07/06 12:28:29;;;;;;;2.13;2.03;;;24.90;99.90;;;;;;5054464;28;20255;-59
2023/07/06 12:30:59;;;;;;;3.67;1.83;;;24.80;99.90;;;;;;5054540;28;20198;-59
2023/07/06 12:33:29;;;;;;;1.63;1.63;;;24.90;99.90;;;;;;5054017;28;20267;-59
2023/07/06 12:35:58;;;;;;;2.03;1.93;;;25.00;99.90;;;;;;5053302;28;20201;-60
2023/07/06 12:38:25;;;;;;;2.20;2.00;;;24.90;99.90;;;;;;5053813;28;20293;-59
2023/07/06 12:41:10;;;;;;;2.20;2.00;;;25.00;99.90;;;;;;5053863;28;20280;-60
2023/07/06 12:43:37;;;;;;;1.97;1.87;;;25.10;99.90;;;;;;5052304;28;20234;-60
2023/07/06 12:46:05;;;;;;;2.47;2.27;;;25.10;99.90;;;;;;5053619;28;20259;-59
2023/07/06 12:48:33;;;;;;;1.97;1.87;;;24.90;99.90;;;;;;5053631;28;20198;-59
2023/07/06 12:51:09;;;;;;;2.23;2.13;;;24.80;99.90;;;;;;5052278;28;20226;-59
2023/07/06 12:53:37;;;;;;;4.97;2.47;;;24.90;99.90;;;;;;5052727;28;20225;-59
2023/07/06 12:56:09;;;;;;;1.70;1.60;;;24.90;99.90;;;;;;5053622;28;20248;-59
2023/07/06 12:58:38;;;;;;;2.03;1.93;;;25.00;99.90;;;;;;5053591;28;20206;-59
2023/07/06 13:01:13;;;;;;;2.57;1.80;;;24.90;99.90;;;;;;5053708;28;20312;-60
2023/07/06 13:03:47;;;;;;;2.33;2.20;;;24.80;99.90;;;;;;5053370;28;20232;-59
2023/07/06 13:06:16;;;;;;;1.60;1.50;;;24.90;99.60;;;;;;5053585;28;20610;-59